sensor_id;sensor_type;location;lat;lon;timestamp;temperature;humidity
14682;DHT22;7429;52.498;13.480;2023-08-17T00:02:02;21.20;99.90
14682;DHT22;7429;52.498;13.480;2023-08-17T00:05:05;21.20;99.90
14682;DHT22;7429;52.498;13.480;2023-08-17T00:08:09;21.20;99.90
14682;DHT22;7429;52.498;13.480;2023-08-17T00:11:12;21.20;99.90
14682;DHT22;7429;52.498;13.480;2023-08-17T00:14:15;21.20;99.90
14682;DHT22;7429;52.498;13.480;2023-08-17T00:17:20;21.10;99.90
14682;DHT22;7429;52.498;13.480;2023-08-17T00:20:24;21.00;99.90
14682;DHT22;7429;52.498;13.480;2023-08-17T00:23:27;21.00;99.90
14682;DHT22;7429;52.498;13.480;2023-08-17T00:26:30;21.00;99.90
14682;DHT22;7429;52.498;13.480;2023-08-17T00:29:33;20.90;99.90
14682;DHT22;7429;52.498;13.480;2023-08-17T00:32:38;20.90;99.90
14682;DHT22;7429;52.498;13.480;2023-08-17T00:35:42;20.90;99.90
14682;DHT22;7429;52.498;13.480;2023-08-17T00:38:47;20.80;99.90
14682;DHT22;7429;52.498;13.480;2023-08-17T00:41:50;20.70;99.90
14682;DHT22;7429;52.498;13.480;2023-08-17T00:44:54;20.70;99.90
14682;DHT22;7429;52.498;13.480;2023-08-17T00:47:59;20.70;99.90
14682;DHT22;7429;52.498;13.480;2023-08-17T00:51:04;20.70;99.90
14682;DHT22;7429;52.498;13.480;2023-08-17T00:54:08;20.60;99.90
14682;DHT22;7429;52.498;13.480;2023-08-17T00:57:12;20.60;99.90
14682;DHT22;7429;52.498;13.480;2023-08-17T01:00:16;20.50;99.90
14682;DHT22;7429;52.498;13.480;2023-08-17T01:03:22;20.40;99.90
14682;DHT22;7429;52.498;13.480;2023-08-17T01:06:26;20.40;99.90
14682;DHT22;7429;52.498;13.480;2023-08-17T01:09:30;20.40;99.90
14682;DHT22;7429;52.498;13.480;2023-08-17T01:12:38;20.40;99.90
14682;DHT22;7429;52.498;13.480;2023-08-17T01:15:49;20.30;99.90
14682;DHT22;7429;52.498;13.480;2023-08-17T01:18:55;20.30;99.90
14682;DHT22;7429;52.498;13.480;2023-08-17T01:22:03;20.30;99.90
14682;DHT22;7429;52.498;13.480;2023-08-17T01:25:09;20.30;99.90
14682;DHT22;7429;52.498;13.480;2023-08-17T01:28:12;20.30;99.90
14682;DHT22;7429;52.498;13.480;2023-08-17T01:31:19;20.20;99.90
14682;DHT22;7429;52.498;13.480;2023-08-17T01:34:27;20.20;99.90
14682;DHT22;7429;52.498;13.480;2023-08-17T01:37:34;20.20;99.90
14682;DHT22;7429;52.498;13.480;2023-08-17T01:40:41;20.20;99.90
14682;DHT22;7429;52.498;13.480;2023-08-17T01:43:46;20.20;99.90
14682;DHT22;7429;52.498;13.480;2023-08-17T01:46:50;20.10;99.90
14682;DHT22;7429;52.498;13.480;2023-08-17T01:49:57;20.10;99.90
14682;DHT22;7429;52.498;13.480;2023-08-17T01:53:02;20.00;99.90
14682;DHT22;7429;52.498;13.480;2023-08-17T01:56:06;20.00;99.90
14682;DHT22;7429;52.498;13.480;2023-08-17T01:59:09;20.00;99.90
14682;DHT22;7429;52.498;13.480;2023-08-17T02:02:12;20.00;99.90
14682;DHT22;7429;52.498;13.480;2023-08-17T02:05:17;19.90;99.90
14682;DHT22;7429;52.498;13.480;2023-08-17T02:08:20;19.90;99.90
14682;DHT22;7429;52.498;13.480;2023-08-17T02:11:25;19.90;99.90
14682;DHT22;7429;52.498;13.480;2023-08-17T02:14:29;19.90;99.90
14682;DHT22;7429;52.498;13.480;2023-08-17T02:17:32;19.90;99.90
14682;DHT22;7429;52.498;13.480;2023-08-17T02:20:35;19.90;99.90
14682;DHT22;7429;52.498;13.480;2023-08-17T02:23:38;19.80;99.90
14682;DHT22;7429;52.498;13.480;2023-08-17T02:26:43;19.80;99.90
14682;DHT22;7429;52.498;13.480;2023-08-17T02:29:46;19.80;99.90
14682;DHT22;7429;52.498;13.480;2023-08-17T02:32:49;19.80;99.90
14682;DHT22;7429;52.498;13.480;2023-08-17T02:35:52;19.80;99.90
14682;DHT22;7429;52.498;13.480;2023-08-17T02:38:55;19.70;99.90
14682;DHT22;7429;52.498;13.480;2023-08-17T02:41:59;19.70;99.90
14682;DHT22;7429;52.498;13.480;2023-08-17T02:45:05;19.60;99.90
14682;DHT22;7429;52.498;13.480;2023-08-17T02:48:10;19.70;99.90
14682;DHT22;7429;52.498;13.480;2023-08-17T02:51:14;19.60;99.90
14682;DHT22;7429;52.498;13.480;2023-08-17T02:54:17;19.60;99.90
14682;DHT22;7429;52.498;13.480;2023-08-17T02:57:22;19.50;99.90
14682;DHT22;7429;52.498;13.480;2023-08-17T03:00:25;19.50;99.90
14682;DHT22;7429;52.498;13.480;2023-08-17T03:03:28;19.50;99.90
14682;DHT22;7429;52.498;13.480;2023-08-17T03:06:32;19.40;99.90
14682;DHT22;7429;52.498;13.480;2023-08-17T03:09:35;19.40;99.90
14682;DHT22;7429;52.498;13.480;2023-08-17T03:12:39;19.40;99.90
14682;DHT22;7429;52.498;13.480;2023-08-17T03:15:43;19.40;99.90
14682;DHT22;7429;52.498;13.480;2023-08-17T03:18:50;19.40;99.90
14682;DHT22;7429;52.498;13.480;2023-08-17T03:21:53;19.40;99.90
14682;DHT22;7429;52.498;13.480;2023-08-17T03:24:57;19.40;99.90
14682;DHT22;7429;52.498;13.480;2023-08-17T03:28:03;19.40;99.90
14682;DHT22;7429;52.498;13.480;2023-08-17T03:31:07;19.40;99.90
14682;DHT22;7429;52.498;13.480;2023-08-17T03:34:11;19.40;99.90
14682;DHT22;7429;52.498;13.480;2023-08-17T03:37:14;19.40;99.90
14682;DHT22;7429;52.498;13.480;2023-08-17T03:40:18;19.40;99.90
14682;DHT22;7429;52.498;13.480;2023-08-17T03:43:22;19.50;99.90
14682;DHT22;7429;52.498;13.480;2023-08-17T03:46:27;19.40;99.90
14682;DHT22;7429;52.498;13.480;2023-08-17T03:49:30;19.40;99.90
14682;DHT22;7429;52.498;13.480;2023-08-17T03:52:33;19.40;99.90
14682;DHT22;7429;52.498;13.480;2023-08-17T03:55:37;19.40;99.90
14682;DHT22;7429;52.498;13.480;2023-08-17T03:58:43;19.40;99.90
14682;DHT22;7429;52.498;13.480;2023-08-17T04:01:46;19.30;99.90
14682;DHT22;7429;52.498;13.480;2023-08-17T04:04:50;19.40;99.90
14682;DHT22;7429;52.498;13.480;2023-08-17T04:07:53;19.30;99.90
14682;DHT22;7429;52.498;13.480;2023-08-17T04:10:56;19.30;99.90
14682;DHT22;7429;52.498;13.480;2023-08-17T04:14:01;19.30;99.90
14682;DHT22;7429;52.498;13.480;2023-08-17T04:17:04;19.30;99.90
14682;DHT22;7429;52.498;13.480;2023-08-17T04:20:09;19.30;99.90
14682;DHT22;7429;52.498;13.480;2023-08-17T04:23:13;19.30;99.90
14682;DHT22;7429;52.498;13.480;2023-08-17T04:26:16;19.30;99.90
14682;DHT22;7429;52.498;13.480;2023-08-17T04:29:20;19.30;99.90
14682;DHT22;7429;52.498;13.480;2023-08-17T04:32:24;19.30;99.90
14682;DHT22;7429;52.498;13.480;2023-08-17T04:35:27;19.30;99.90
14682;DHT22;7429;52.498;13.480;2023-08-17T04:38:30;19.30;99.90
14682;DHT22;7429;52.498;13.480;2023-08-17T04:41:34;19.30;99.90
14682;DHT22;7429;52.498;13.480;2023-08-17T04:44:42;19.40;99.90
14682;DHT22;7429;52.498;13.480;2023-08-17T04:47:46;19.40;99.90
14682;DHT22;7429;52.498;13.480;2023-08-17T04:50:51;19.40;99.90
14682;DHT22;7429;52.498;13.480;2023-08-17T04:53:54;19.40;99.90
14682;DHT22;7429;52.498;13.480;2023-08-17T04:56:57;19.50;99.90
14682;DHT22;7429;52.498;13.480;2023-08-17T05:00:02;19.60;99.90
14682;DHT22;7429;52.498;13.480;2023-08-17T05:03:10;19.60;99.90
14682;DHT22;7429;52.498;13.480;2023-08-17T05:06:28;19.70;99.90
14682;DHT22;7429;52.498;13.480;2023-08-17T05:09:31;19.60;99.90
14682;DHT22;7429;52.498;13.480;2023-08-17T05:12:35;19.70;99.90
14682;DHT22;7429;52.498;13.480;2023-08-17T05:15:39;19.70;99.90
14682;DHT22;7429;52.498;13.480;2023-08-17T05:18:44;19.70;99.90
14682;DHT22;7429;52.498;13.480;2023-08-17T05:21:50;19.80;99.90
14682;DHT22;7429;52.498;13.480;2023-08-17T05:24:55;19.80;99.90
14682;DHT22;7429;52.498;13.480;2023-08-17T05:27:58;19.90;99.90
14682;DHT22;7429;52.498;13.480;2023-08-17T05:31:04;20.00;99.90
14682;DHT22;7429;52.498;13.480;2023-08-17T05:34:12;20.00;99.90
14682;DHT22;7429;52.498;13.480;2023-08-17T05:37:15;20.10;99.90
14682;DHT22;7429;52.498;13.480;2023-08-17T05:40:18;20.20;99.90
14682;DHT22;7429;52.498;13.480;2023-08-17T05:43:22;20.30;99.90
14682;DHT22;7429;52.498;13.480;2023-08-17T05:46:26;20.30;99.90
14682;DHT22;7429;52.498;13.480;2023-08-17T05:49:29;20.30;99.90
14682;DHT22;7429;52.498;13.480;2023-08-17T05:52:33;20.30;99.90
14682;DHT22;7429;52.498;13.480;2023-08-17T05:55:36;20.30;99.90
14682;DHT22;7429;52.498;13.480;2023-08-17T05:58:39;20.40;99.90
14682;DHT22;7429;52.498;13.480;2023-08-17T06:01:44;20.40;99.90
14682;DHT22;7429;52.498;13.480;2023-08-17T06:04:47;20.40;99.90
14682;DHT22;7429;52.498;13.480;2023-08-17T06:07:51;20.50;99.90
14682;DHT22;7429;52.498;13.480;2023-08-17T06:10:54;20.50;99.90
14682;DHT22;7429;52.498;13.480;2023-08-17T06:13:57;20.50;99.90
14682;DHT22;7429;52.498;13.480;2023-08-17T06:17:02;20.50;99.90
14682;DHT22;7429;52.498;13.480;2023-08-17T06:20:06;20.50;99.90
14682;DHT22;7429;52.498;13.480;2023-08-17T06:23:14;20.50;99.90
14682;DHT22;7429;52.498;13.480;2023-08-17T06:26:17;20.40;99.90
14682;DHT22;7429;52.498;13.480;2023-08-17T06:29:21;20.30;99.90
14682;DHT22;7429;52.498;13.480;2023-08-17T06:32:25;20.40;99.90
14682;DHT22;7429;52.498;13.480;2023-08-17T06:35:28;20.40;99.90
14682;DHT22;7429;52.498;13.480;2023-08-17T06:38:31;20.40;99.90
14682;DHT22;7429;52.498;13.480;2023-08-17T06:41:34;20.50;99.90
14682;DHT22;7429;52.498;13.480;2023-08-17T06:44:37;20.50;99.90
14682;DHT22;7429;52.498;13.480;2023-08-17T06:47:42;20.60;99.90
14682;DHT22;7429;52.498;13.480;2023-08-17T06:50:46;20.50;99.90
14682;DHT22;7429;52.498;13.480;2023-08-17T06:53:50;20.60;99.90
14682;DHT22;7429;52.498;13.480;2023-08-17T06:56:53;20.50;99.90
14682;DHT22;7429;52.498;13.480;2023-08-17T06:59:56;20.50;99.90
14682;DHT22;7429;52.498;13.480;2023-08-17T07:03:02;20.60;99.90
14682;DHT22;7429;52.498;13.480;2023-08-17T07:06:06;20.80;99.90
14682;DHT22;7429;52.498;13.480;2023-08-17T07:09:09;20.80;99.90
14682;DHT22;7429;52.498;13.480;2023-08-17T07:12:14;20.90;99.90
14682;DHT22;7429;52.498;13.480;2023-08-17T07:15:17;20.90;99.90
14682;DHT22;7429;52.498;13.480;2023-08-17T07:18:22;21.00;99.90
14682;DHT22;7429;52.498;13.480;2023-08-17T07:21:25;21.00;99.90
14682;DHT22;7429;52.498;13.480;2023-08-17T07:24:29;21.00;99.90
14682;DHT22;7429;52.498;13.480;2023-08-17T07:27:32;21.10;99.90
14682;DHT22;7429;52.498;13.480;2023-08-17T07:30:35;21.10;99.90
14682;DHT22;7429;52.498;13.480;2023-08-17T07:33:39;21.10;99.90
14682;DHT22;7429;52.498;13.480;2023-08-17T07:36:43;21.10;99.90
14682;DHT22;7429;52.498;13.480;2023-08-17T07:39:46;21.00;99.90
14682;DHT22;7429;52.498;13.480;2023-08-17T07:42:49;21.00;99.90
14682;DHT22;7429;52.498;13.480;2023-08-17T07:45:56;21.00;99.90
14682;DHT22;7429;52.498;13.480;2023-08-17T07:49:01;21.10;99.90
14682;DHT22;7429;52.498;13.480;2023-08-17T07:52:04;21.10;99.90
14682;DHT22;7429;52.498;13.480;2023-08-17T07:55:08;21.20;99.90
14682;DHT22;7429;52.498;13.480;2023-08-17T07:58:11;21.20;99.90
14682;DHT22;7429;52.498;13.480;2023-08-17T08:01:14;21.30;99.90
14682;DHT22;7429;52.498;13.480;2023-08-17T08:04:19;21.30;99.90
14682;DHT22;7429;52.498;13.480;2023-08-17T08:07:22;21.30;99.90
14682;DHT22;7429;52.498;13.480;2023-08-17T08:10:26;21.30;99.90
14682;DHT22;7429;52.498;13.480;2023-08-17T08:13:32;21.30;99.90
14682;DHT22;7429;52.498;13.480;2023-08-17T08:16:35;21.40;99.90
14682;DHT22;7429;52.498;13.480;2023-08-17T08:19:40;21.60;99.90
14682;DHT22;7429;52.498;13.480;2023-08-17T08:22:43;21.70;99.90
14682;DHT22;7429;52.498;13.480;2023-08-17T08:25:46;21.80;99.90
14682;DHT22;7429;52.498;13.480;2023-08-17T08:28:49;21.90;99.90
14682;DHT22;7429;52.498;13.480;2023-08-17T08:31:53;22.00;99.90
14682;DHT22;7429;52.498;13.480;2023-08-17T08:34:57;22.10;99.90
14682;DHT22;7429;52.498;13.480;2023-08-17T08:38:01;22.20;99.90
14682;DHT22;7429;52.498;13.480;2023-08-17T08:41:05;22.20;99.90
14682;DHT22;7429;52.498;13.480;2023-08-17T08:44:10;22.30;99.90
14682;DHT22;7429;52.498;13.480;2023-08-17T08:47:22;22.30;99.90
14682;DHT22;7429;52.498;13.480;2023-08-17T08:50:31;22.30;99.90
14682;DHT22;7429;52.498;13.480;2023-08-17T08:53:38;22.20;99.90
14682;DHT22;7429;52.498;13.480;2023-08-17T08:56:46;22.20;99.90
14682;DHT22;7429;52.498;13.480;2023-08-17T08:59:54;22.10;99.90
14682;DHT22;7429;52.498;13.480;2023-08-17T09:02:59;22.10;99.90
14682;DHT22;7429;52.498;13.480;2023-08-17T09:06:07;22.20;99.90
14682;DHT22;7429;52.498;13.480;2023-08-17T09:12:46;22.20;99.90
14682;DHT22;7429;52.498;13.480;2023-08-17T09:16:01;22.10;99.90
14682;DHT22;7429;52.498;13.480;2023-08-17T09:19:09;22.20;99.90
14682;DHT22;7429;52.498;13.480;2023-08-17T09:22:43;22.20;99.90
14682;DHT22;7429;52.498;13.480;2023-08-17T09:25:56;22.20;99.90
14682;DHT22;7429;52.498;13.480;2023-08-17T09:29:16;22.20;99.90
14682;DHT22;7429;52.498;13.480;2023-08-17T09:32:21;22.20;99.90
14682;DHT22;7429;52.498;13.480;2023-08-17T09:35:24;22.20;99.90
14682;DHT22;7429;52.498;13.480;2023-08-17T09:38:30;22.40;99.90
14682;DHT22;7429;52.498;13.480;2023-08-17T09:41:41;22.50;99.90
14682;DHT22;7429;52.498;13.480;2023-08-17T09:44:45;22.70;99.90
14682;DHT22;7429;52.498;13.480;2023-08-17T09:47:57;22.80;99.90
14682;DHT22;7429;52.498;13.480;2023-08-17T09:51:06;23.00;99.90
14682;DHT22;7429;52.498;13.480;2023-08-17T09:54:20;23.10;99.90
14682;DHT22;7429;52.498;13.480;2023-08-17T09:57:25;23.00;99.90
14682;DHT22;7429;52.498;13.480;2023-08-17T10:00:29;23.00;99.90
14682;DHT22;7429;52.498;13.480;2023-08-17T10:03:33;23.00;99.90
14682;DHT22;7429;52.498;13.480;2023-08-17T10:06:39;23.00;99.90
14682;DHT22;7429;52.498;13.480;2023-08-17T10:09:49;23.10;99.90
14682;DHT22;7429;52.498;13.480;2023-08-17T10:13:04;23.00;99.90
14682;DHT22;7429;52.498;13.480;2023-08-17T10:16:18;23.00;99.90
14682;DHT22;7429;52.498;13.480;2023-08-17T10:19:41;23.10;99.90
14682;DHT22;7429;52.498;13.480;2023-08-17T10:22:51;23.10;99.90
14682;DHT22;7429;52.498;13.480;2023-08-17T10:26:04;23.10;99.90
14682;DHT22;7429;52.498;13.480;2023-08-17T10:29:11;23.10;99.90
14682;DHT22;7429;52.498;13.480;2023-08-17T10:32:19;23.20;99.90
14682;DHT22;7429;52.498;13.480;2023-08-17T10:35:24;23.20;99.90
14682;DHT22;7429;52.498;13.480;2023-08-17T10:38:28;23.20;99.90
14682;DHT22;7429;52.498;13.480;2023-08-17T10:41:46;23.20;99.90
14682;DHT22;7429;52.498;13.480;2023-08-17T10:44:50;23.10;99.90
14682;DHT22;7429;52.498;13.480;2023-08-17T10:51:27;23.40;99.90
14682;DHT22;7429;52.498;13.480;2023-08-17T10:54:37;23.50;99.90
14682;DHT22;7429;52.498;13.480;2023-08-17T10:57:42;23.70;99.90
14682;DHT22;7429;52.498;13.480;2023-08-17T11:00:46;24.10;99.90
14682;DHT22;7429;52.498;13.480;2023-08-17T11:04:08;24.40;99.90
14682;DHT22;7429;52.498;13.480;2023-08-17T11:07:13;24.50;99.90
14682;DHT22;7429;52.498;13.480;2023-08-17T11:10:27;24.60;99.90
14682;DHT22;7429;52.498;13.480;2023-08-17T11:13:37;24.70;99.90
14682;DHT22;7429;52.498;13.480;2023-08-17T11:16:40;24.90;99.90
14682;DHT22;7429;52.498;13.480;2023-08-17T11:19:49;25.20;99.90
14682;DHT22;7429;52.498;13.480;2023-08-17T11:22:53;25.60;99.90
14682;DHT22;7429;52.498;13.480;2023-08-17T11:25:59;25.70;99.90
14682;DHT22;7429;52.498;13.480;2023-08-17T11:29:04;25.70;99.90
14682;DHT22;7429;52.498;13.480;2023-08-17T11:32:08;25.70;99.90
14682;DHT22;7429;52.498;13.480;2023-08-17T11:35:13;25.70;99.90
14682;DHT22;7429;52.498;13.480;2023-08-17T11:38:19;25.70;99.90
14682;DHT22;7429;52.498;13.480;2023-08-17T11:41:22;25.60;99.90
14682;DHT22;7429;52.498;13.480;2023-08-17T11:44:26;25.50;99.90
14682;DHT22;7429;52.498;13.480;2023-08-17T11:47:30;25.50;99.90
14682;DHT22;7429;52.498;13.480;2023-08-17T11:50:34;25.50;99.90
14682;DHT22;7429;52.498;13.480;2023-08-17T11:53:40;25.30;99.90
14682;DHT22;7429;52.498;13.480;2023-08-17T11:56:50;25.30;99.90
14682;DHT22;7429;52.498;13.480;2023-08-17T11:59:55;25.30;99.90
14682;DHT22;7429;52.498;13.480;2023-08-17T12:02:59;25.40;99.90
14682;DHT22;7429;52.498;13.480;2023-08-17T12:06:05;25.50;99.90
14682;DHT22;7429;52.498;13.480;2023-08-17T12:09:08;25.50;99.90
14682;DHT22;7429;52.498;13.480;2023-08-17T12:12:17;25.50;99.90
14682;DHT22;7429;52.498;13.480;2023-08-17T12:15:22;25.50;99.90
14682;DHT22;7429;52.498;13.480;2023-08-17T12:18:26;25.60;99.90
14682;DHT22;7429;52.498;13.480;2023-08-17T12:21:29;25.60;99.90
14682;DHT22;7429;52.498;13.480;2023-08-17T12:24:35;25.80;99.90
14682;DHT22;7429;52.498;13.480;2023-08-17T12:27:43;26.10;99.90
14682;DHT22;7429;52.498;13.480;2023-08-17T12:31:00;26.30;99.90
14682;DHT22;7429;52.498;13.480;2023-08-17T12:34:04;26.40;99.90
14682;DHT22;7429;52.498;13.480;2023-08-17T12:37:08;26.60;99.90
14682;DHT22;7429;52.498;13.480;2023-08-17T12:40:16;26.90;99.90
14682;DHT22;7429;52.498;13.480;2023-08-17T12:43:20;27.00;99.90
14682;DHT22;7429;52.498;13.480;2023-08-17T12:46:24;27.20;99.90
14682;DHT22;7429;52.498;13.480;2023-08-17T12:49:33;27.40;99.90
14682;DHT22;7429;52.498;13.480;2023-08-17T12:52:40;27.30;99.90
14682;DHT22;7429;52.498;13.480;2023-08-17T12:55:48;27.10;99.90
14682;DHT22;7429;52.498;13.480;2023-08-17T12:58:57;27.10;99.90
14682;DHT22;7429;52.498;13.480;2023-08-17T13:02:05;27.10;99.90
14682;DHT22;7429;52.498;13.480;2023-08-17T13:05:09;27.00;99.90
14682;DHT22;7429;52.498;13.480;2023-08-17T13:08:14;26.90;99.90
14682;DHT22;7429;52.498;13.480;2023-08-17T13:11:17;27.00;99.90
14682;DHT22;7429;52.498;13.480;2023-08-17T13:14:20;27.20;99.90
14682;DHT22;7429;52.498;13.480;2023-08-17T13:17:28;27.60;99.90
14682;DHT22;7429;52.498;13.480;2023-08-17T13:20:31;27.90;99.90
14682;DHT22;7429;52.498;13.480;2023-08-17T13:23:34;28.20;99.90
14682;DHT22;7429;52.498;13.480;2023-08-17T13:26:38;28.30;99.90
14682;DHT22;7429;52.498;13.480;2023-08-17T13:29:42;28.30;99.90
14682;DHT22;7429;52.498;13.480;2023-08-17T13:32:47;28.30;99.90
14682;DHT22;7429;52.498;13.480;2023-08-17T13:35:50;28.60;99.90
14682;DHT22;7429;52.498;13.480;2023-08-17T13:38:54;28.90;99.90
14682;DHT22;7429;52.498;13.480;2023-08-17T13:41:57;28.90;99.90
14682;DHT22;7429;52.498;13.480;2023-08-17T13:45:00;28.80;99.90
14682;DHT22;7429;52.498;13.480;2023-08-17T13:48:06;28.40;99.90
14682;DHT22;7429;52.498;13.480;2023-08-17T13:51:09;28.20;99.90
14682;DHT22;7429;52.498;13.480;2023-08-17T13:54:12;28.30;99.90
14682;DHT22;7429;52.498;13.480;2023-08-17T13:57:18;28.40;99.90
14682;DHT22;7429;52.498;13.480;2023-08-17T14:00:21;28.70;99.90
14682;DHT22;7429;52.498;13.480;2023-08-17T14:03:26;29.00;99.90
14682;DHT22;7429;52.498;13.480;2023-08-17T14:06:29;29.30;99.90
14682;DHT22;7429;52.498;13.480;2023-08-17T14:09:32;29.30;99.90
14682;DHT22;7429;52.498;13.480;2023-08-17T14:12:35;29.40;99.90
14682;DHT22;7429;52.498;13.480;2023-08-17T14:15:38;29.30;99.90
14682;DHT22;7429;52.498;13.480;2023-08-17T14:18:43;29.00;99.90
14682;DHT22;7429;52.498;13.480;2023-08-17T14:21:46;28.70;99.90
14682;DHT22;7429;52.498;13.480;2023-08-17T14:24:53;28.70;99.90
14682;DHT22;7429;52.498;13.480;2023-08-17T14:27:57;29.00;99.90
14682;DHT22;7429;52.498;13.480;2023-08-17T14:31:01;29.20;99.90
14682;DHT22;7429;52.498;13.480;2023-08-17T14:34:08;29.10;99.90
14682;DHT22;7429;52.498;13.480;2023-08-17T14:37:11;29.40;99.90
14682;DHT22;7429;52.498;13.480;2023-08-17T14:40:14;29.40;99.90
14682;DHT22;7429;52.498;13.480;2023-08-17T14:43:19;29.50;99.90
14682;DHT22;7429;52.498;13.480;2023-08-17T14:46:23;29.30;99.90
14682;DHT22;7429;52.498;13.480;2023-08-17T14:49:27;29.30;99.90
14682;DHT22;7429;52.498;13.480;2023-08-17T14:52:38;29.20;99.90
14682;DHT22;7429;52.498;13.480;2023-08-17T14:55:41;28.90;99.90
14682;DHT22;7429;52.498;13.480;2023-08-17T14:58:44;28.70;99.90
14682;DHT22;7429;52.498;13.480;2023-08-17T15:01:48;28.50;99.90
14682;DHT22;7429;52.498;13.480;2023-08-17T15:04:56;28.60;99.90
14682;DHT22;7429;52.498;13.480;2023-08-17T15:07:59;28.90;99.90
14682;DHT22;7429;52.498;13.480;2023-08-17T15:11:02;29.20;99.90
14682;DHT22;7429;52.498;13.480;2023-08-17T15:14:05;29.40;99.90
14682;DHT22;7429;52.498;13.480;2023-08-17T15:17:09;29.60;99.90
14682;DHT22;7429;52.498;13.480;2023-08-17T15:20:19;29.50;99.90
14682;DHT22;7429;52.498;13.480;2023-08-17T15:23:25;29.70;99.90
14682;DHT22;7429;52.498;13.480;2023-08-17T15:26:28;29.90;99.90
14682;DHT22;7429;52.498;13.480;2023-08-17T15:29:31;29.60;99.90
14682;DHT22;7429;52.498;13.480;2023-08-17T15:32:36;29.30;99.90
14682;DHT22;7429;52.498;13.480;2023-08-17T15:35:41;29.10;99.90
14682;DHT22;7429;52.498;13.480;2023-08-17T15:38:44;29.00;99.90
14682;DHT22;7429;52.498;13.480;2023-08-17T15:41:47;29.10;99.90
14682;DHT22;7429;52.498;13.480;2023-08-17T15:44:50;29.00;99.90
14682;DHT22;7429;52.498;13.480;2023-08-17T15:47:54;28.80;99.90
14682;DHT22;7429;52.498;13.480;2023-08-17T15:50:58;28.60;99.90
14682;DHT22;7429;52.498;13.480;2023-08-17T15:54:01;28.30;99.90
14682;DHT22;7429;52.498;13.480;2023-08-17T15:57:05;28.20;99.90
14682;DHT22;7429;52.498;13.480;2023-08-17T16:00:17;28.10;99.90
14682;DHT22;7429;52.498;13.480;2023-08-17T16:03:20;27.90;99.90
14682;DHT22;7429;52.498;13.480;2023-08-17T16:06:25;27.70;99.90
14682;DHT22;7429;52.498;13.480;2023-08-17T16:09:28;27.60;99.90
14682;DHT22;7429;52.498;13.480;2023-08-17T16:12:32;27.60;99.90
14682;DHT22;7429;52.498;13.480;2023-08-17T16:15:35;27.60;99.90
14682;DHT22;7429;52.498;13.480;2023-08-17T16:18:38;27.50;99.90
14682;DHT22;7429;52.498;13.480;2023-08-17T16:21:43;27.50;99.90
14682;DHT22;7429;52.498;13.480;2023-08-17T16:24:47;27.40;99.90
14682;DHT22;7429;52.498;13.480;2023-08-17T16:27:51;27.40;99.90
14682;DHT22;7429;52.498;13.480;2023-08-17T16:30:54;27.30;99.90
14682;DHT22;7429;52.498;13.480;2023-08-17T16:33:57;27.40;99.90
14682;DHT22;7429;52.498;13.480;2023-08-17T16:37:03;27.30;99.90
14682;DHT22;7429;52.498;13.480;2023-08-17T16:40:07;27.30;99.90
14682;DHT22;7429;52.498;13.480;2023-08-17T16:43:24;27.30;99.90
14682;DHT22;7429;52.498;13.480;2023-08-17T16:46:28;27.30;99.90
14682;DHT22;7429;52.498;13.480;2023-08-17T16:49:31;27.20;99.90
14682;DHT22;7429;52.498;13.480;2023-08-17T16:52:35;27.10;99.90
14682;DHT22;7429;52.498;13.480;2023-08-17T16:55:40;27.00;99.90
14682;DHT22;7429;52.498;13.480;2023-08-17T16:58:43;27.10;99.90
14682;DHT22;7429;52.498;13.480;2023-08-17T17:01:46;27.10;99.90
14682;DHT22;7429;52.498;13.480;2023-08-17T17:04:50;27.00;99.90
14682;DHT22;7429;52.498;13.480;2023-08-17T17:07:54;27.00;99.90
14682;DHT22;7429;52.498;13.480;2023-08-17T17:10:59;26.90;99.90
14682;DHT22;7429;52.498;13.480;2023-08-17T17:14:03;26.80;99.90
14682;DHT22;7429;52.498;13.480;2023-08-17T17:17:06;26.70;99.90
14682;DHT22;7429;52.498;13.480;2023-08-17T17:20:10;26.60;99.90
14682;DHT22;7429;52.498;13.480;2023-08-17T17:23:15;26.60;99.90
14682;DHT22;7429;52.498;13.480;2023-08-17T17:26:19;26.60;99.90
14682;DHT22;7429;52.498;13.480;2023-08-17T17:29:23;26.50;99.90
14682;DHT22;7429;52.498;13.480;2023-08-17T17:32:26;26.50;99.90
14682;DHT22;7429;52.498;13.480;2023-08-17T17:35:29;26.40;99.90
14682;DHT22;7429;52.498;13.480;2023-08-17T17:38:34;26.40;99.90
14682;DHT22;7429;52.498;13.480;2023-08-17T17:41:37;26.40;99.90
14682;DHT22;7429;52.498;13.480;2023-08-17T17:44:40;26.40;99.90
14682;DHT22;7429;52.498;13.480;2023-08-17T17:47:43;26.30;99.90
14682;DHT22;7429;52.498;13.480;2023-08-17T17:50:47;26.30;99.90
14682;DHT22;7429;52.498;13.480;2023-08-17T17:53:51;26.40;99.90
14682;DHT22;7429;52.498;13.480;2023-08-17T17:56:54;26.30;99.90
14682;DHT22;7429;52.498;13.480;2023-08-17T17:59:59;26.30;99.90
14682;DHT22;7429;52.498;13.480;2023-08-17T18:03:14;26.20;99.90
14682;DHT22;7429;52.498;13.480;2023-08-17T18:06:18;26.10;99.90
14682;DHT22;7429;52.498;13.480;2023-08-17T18:09:23;26.10;99.90
14682;DHT22;7429;52.498;13.480;2023-08-17T18:12:26;26.10;99.90
14682;DHT22;7429;52.498;13.480;2023-08-17T18:15:31;26.00;99.90
14682;DHT22;7429;52.498;13.480;2023-08-17T18:18:35;25.90;99.90
14682;DHT22;7429;52.498;13.480;2023-08-17T18:21:38;25.80;99.90
14682;DHT22;7429;52.498;13.480;2023-08-17T18:24:43;25.90;99.90
14682;DHT22;7429;52.498;13.480;2023-08-17T18:27:48;25.90;99.90
14682;DHT22;7429;52.498;13.480;2023-08-17T18:30:51;25.80;99.90
14682;DHT22;7429;52.498;13.480;2023-08-17T18:33:55;25.70;99.90
14682;DHT22;7429;52.498;13.480;2023-08-17T18:36:58;25.60;99.90
14682;DHT22;7429;52.498;13.480;2023-08-17T18:40:03;25.60;99.90
14682;DHT22;7429;52.498;13.480;2023-08-17T18:43:08;25.50;99.90
14682;DHT22;7429;52.498;13.480;2023-08-17T18:46:11;25.40;99.90
14682;DHT22;7429;52.498;13.480;2023-08-17T18:49:14;25.30;99.90
14682;DHT22;7429;52.498;13.480;2023-08-17T18:52:17;25.30;99.90
14682;DHT22;7429;52.498;13.480;2023-08-17T18:55:22;25.30;99.90
14682;DHT22;7429;52.498;13.480;2023-08-17T18:58:26;25.30;99.90
14682;DHT22;7429;52.498;13.480;2023-08-17T19:01:29;25.10;99.90
14682;DHT22;7429;52.498;13.480;2023-08-17T19:04:32;25.00;99.90
14682;DHT22;7429;52.498;13.480;2023-08-17T19:07:35;24.90;99.90
14682;DHT22;7429;52.498;13.480;2023-08-17T19:10:40;24.80;99.90
14682;DHT22;7429;52.498;13.480;2023-08-17T19:13:43;24.80;99.90
14682;DHT22;7429;52.498;13.480;2023-08-17T19:16:46;24.70;99.90
14682;DHT22;7429;52.498;13.480;2023-08-17T19:19:51;24.70;99.90
14682;DHT22;7429;52.498;13.480;2023-08-17T19:22:55;24.60;99.90
14682;DHT22;7429;52.498;13.480;2023-08-17T19:25:59;24.50;99.90
14682;DHT22;7429;52.498;13.480;2023-08-17T19:29:08;24.50;99.90
14682;DHT22;7429;52.498;13.480;2023-08-17T19:32:17;24.40;99.90
14682;DHT22;7429;52.498;13.480;2023-08-17T19:35:26;24.40;99.90